sensor_id;sensor_type;location;lat;lon;timestamp;temperature;humidity
5930;DHT22;2990;48.746;9.236;2023-04-07T00:00:52;5.30;1.00
5930;DHT22;2990;48.746;9.236;2023-04-07T00:03:18;5.30;1.00
5930;DHT22;2990;48.746;9.236;2023-04-07T00:05:43;5.40;1.00
5930;DHT22;2990;48.746;9.236;2023-04-07T00:08:09;5.30;1.00
5930;DHT22;2990;48.746;9.236;2023-04-07T00:10:35;5.40;1.00
5930;DHT22;2990;48.746;9.236;2023-04-07T00:13:01;5.40;1.00
5930;DHT22;2990;48.746;9.236;2023-04-07T00:15:26;5.30;1.00
5930;DHT22;2990;48.746;9.236;2023-04-07T00:17:52;5.20;1.00
5930;DHT22;2990;48.746;9.236;2023-04-07T00:20:18;5.30;1.00
5930;DHT22;2990;48.746;9.236;2023-04-07T00:22:43;5.30;1.00
5930;DHT22;2990;48.746;9.236;2023-04-07T00:25:09;5.30;1.00
5930;DHT22;2990;48.746;9.236;2023-04-07T00:27:35;5.40;1.00
5930;DHT22;2990;48.746;9.236;2023-04-07T00:30:01;5.40;1.00
5930;DHT22;2990;48.746;9.236;2023-04-07T00:32:27;5.40;1.00
5930;DHT22;2990;48.746;9.236;2023-04-07T00:34:52;5.40;1.00
5930;DHT22;2990;48.746;9.236;2023-04-07T00:37:18;5.40;1.00
5930;DHT22;2990;48.746;9.236;2023-04-07T00:39:44;5.40;1.00
5930;DHT22;2990;48.746;9.236;2023-04-07T00:42:10;5.40;1.00
5930;DHT22;2990;48.746;9.236;2023-04-07T00:44:36;5.40;1.00
5930;DHT22;2990;48.746;9.236;2023-04-07T00:47:02;5.40;1.00
5930;DHT22;2990;48.746;9.236;2023-04-07T00:49:28;5.40;1.00
5930;DHT22;2990;48.746;9.236;2023-04-07T00:51:54;5.40;1.00
5930;DHT22;2990;48.746;9.236;2023-04-07T00:54:22;5.40;1.00
5930;DHT22;2990;48.746;9.236;2023-04-07T00:56:48;5.40;1.00
5930;DHT22;2990;48.746;9.236;2023-04-07T00:59:13;5.40;1.00
5930;DHT22;2990;48.746;9.236;2023-04-07T01:02:00;5.40;1.00
5930;DHT22;2990;48.746;9.236;2023-04-07T01:07:17;5.30;1.00
5930;DHT22;2990;48.746;9.236;2023-04-07T01:09:52;5.30;1.00
5930;DHT22;2990;48.746;9.236;2023-04-07T01:12:35;5.30;1.00
5930;DHT22;2990;48.746;9.236;2023-04-07T01:15:11;5.30;1.00
5930;DHT22;2990;48.746;9.236;2023-04-07T01:17:44;5.30;1.00
5930;DHT22;2990;48.746;9.236;2023-04-07T01:20:15;5.20;1.00
5930;DHT22;2990;48.746;9.236;2023-04-07T01:22:48;5.30;1.00
5930;DHT22;2990;48.746;9.236;2023-04-07T01:30:31;5.40;1.00
5930;DHT22;2990;48.746;9.236;2023-04-07T01:32:59;5.20;1.00
5930;DHT22;2990;48.746;9.236;2023-04-07T01:35:30;5.30;1.00
5930;DHT22;2990;48.746;9.236;2023-04-07T01:37:57;5.30;1.00
5930;DHT22;2990;48.746;9.236;2023-04-07T01:40:27;5.30;1.00
5930;DHT22;2990;48.746;9.236;2023-04-07T01:42:55;5.30;1.00
5930;DHT22;2990;48.746;9.236;2023-04-07T01:45:21;5.30;1.00
5930;DHT22;2990;48.746;9.236;2023-04-07T01:47:48;5.30;1.00
5930;DHT22;2990;48.746;9.236;2023-04-07T01:50:15;5.30;1.00
5930;DHT22;2990;48.746;9.236;2023-04-07T01:52:42;5.30;1.00
5930;DHT22;2990;48.746;9.236;2023-04-07T01:55:09;5.30;1.00
5930;DHT22;2990;48.746;9.236;2023-04-07T01:57:38;5.30;1.00
5930;DHT22;2990;48.746;9.236;2023-04-07T02:00:05;5.30;1.00
5930;DHT22;2990;48.746;9.236;2023-04-07T02:02:34;5.30;1.00
5930;DHT22;2990;48.746;9.236;2023-04-07T02:05:04;5.30;1.00
5930;DHT22;2990;48.746;9.236;2023-04-07T02:07:52;5.30;1.00
5930;DHT22;2990;48.746;9.236;2023-04-07T02:10:23;5.30;1.00
5930;DHT22;2990;48.746;9.236;2023-04-07T02:12:53;5.30;1.00
5930;DHT22;2990;48.746;9.236;2023-04-07T02:15:21;5.30;1.00
5930;DHT22;2990;48.746;9.236;2023-04-07T02:17:50;5.30;1.00
5930;DHT22;2990;48.746;9.236;2023-04-07T02:20:17;5.30;1.00
5930;DHT22;2990;48.746;9.236;2023-04-07T02:22:44;5.30;1.00
5930;DHT22;2990;48.746;9.236;2023-04-07T02:25:30;5.30;1.00
5930;DHT22;2990;48.746;9.236;2023-04-07T02:27:58;5.30;1.00
5930;DHT22;2990;48.746;9.236;2023-04-07T02:30:27;5.50;1.00
5930;DHT22;2990;48.746;9.236;2023-04-07T02:32:53;5.30;1.00
5930;DHT22;2990;48.746;9.236;2023-04-07T02:35:19;5.30;1.00
5930;DHT22;2990;48.746;9.236;2023-04-07T02:37:46;5.30;1.00
5930;DHT22;2990;48.746;9.236;2023-04-07T02:40:12;5.30;1.00
5930;DHT22;2990;48.746;9.236;2023-04-07T02:42:38;5.30;1.00
5930;DHT22;2990;48.746;9.236;2023-04-07T02:45:07;5.50;1.00
5930;DHT22;2990;48.746;9.236;2023-04-07T02:47:36;5.30;1.00
5930;DHT22;2990;48.746;9.236;2023-04-07T02:50:03;5.40;1.00
5930;DHT22;2990;48.746;9.236;2023-04-07T02:52:28;5.40;1.00
5930;DHT22;2990;48.746;9.236;2023-04-07T02:54:54;5.40;1.00
5930;DHT22;2990;48.746;9.236;2023-04-07T02:57:20;5.40;1.00
5930;DHT22;2990;48.746;9.236;2023-04-07T02:59:46;5.50;1.00
5930;DHT22;2990;48.746;9.236;2023-04-07T03:02:11;5.40;1.00
5930;DHT22;2990;48.746;9.236;2023-04-07T03:04:37;5.40;1.00
5930;DHT22;2990;48.746;9.236;2023-04-07T03:07:03;5.30;1.00
5930;DHT22;2990;48.746;9.236;2023-04-07T03:09:28;5.30;1.00
5930;DHT22;2990;48.746;9.236;2023-04-07T03:11:54;5.30;1.00
5930;DHT22;2990;48.746;9.236;2023-04-07T03:14:20;5.30;1.00
5930;DHT22;2990;48.746;9.236;2023-04-07T03:16:47;5.40;1.00
5930;DHT22;2990;48.746;9.236;2023-04-07T03:19:12;5.30;1.00
5930;DHT22;2990;48.746;9.236;2023-04-07T03:21:38;5.30;1.00
5930;DHT22;2990;48.746;9.236;2023-04-07T03:24:05;5.30;1.00
5930;DHT22;2990;48.746;9.236;2023-04-07T03:26:34;5.30;1.00
5930;DHT22;2990;48.746;9.236;2023-04-07T03:28:59;5.30;1.00
5930;DHT22;2990;48.746;9.236;2023-04-07T03:31:27;5.30;1.00
5930;DHT22;2990;48.746;9.236;2023-04-07T03:33:54;5.30;1.00
5930;DHT22;2990;48.746;9.236;2023-04-07T03:36:20;5.40;1.00
5930;DHT22;2990;48.746;9.236;2023-04-07T03:38:46;5.50;1.00
5930;DHT22;2990;48.746;9.236;2023-04-07T03:41:12;5.50;1.00
5930;DHT22;2990;48.746;9.236;2023-04-07T03:43:38;5.40;1.00
5930;DHT22;2990;48.746;9.236;2023-04-07T03:46:03;5.50;1.00
5930;DHT22;2990;48.746;9.236;2023-04-07T03:48:29;5.50;1.00
5930;DHT22;2990;48.746;9.236;2023-04-07T03:50:55;5.50;1.00
5930;DHT22;2990;48.746;9.236;2023-04-07T03:53:21;5.50;1.00
5930;DHT22;2990;48.746;9.236;2023-04-07T03:55:46;5.50;1.00
5930;DHT22;2990;48.746;9.236;2023-04-07T03:58:12;5.40;1.00
5930;DHT22;2990;48.746;9.236;2023-04-07T04:00:38;5.50;1.00
5930;DHT22;2990;48.746;9.236;2023-04-07T04:03:04;5.50;1.00
5930;DHT22;2990;48.746;9.236;2023-04-07T04:05:30;5.50;1.00
5930;DHT22;2990;48.746;9.236;2023-04-07T04:07:55;5.40;1.00
5930;DHT22;2990;48.746;9.236;2023-04-07T04:10:21;5.40;1.00
5930;DHT22;2990;48.746;9.236;2023-04-07T04:12:47;5.40;1.00
5930;DHT22;2990;48.746;9.236;2023-04-07T04:15:14;5.40;1.00
5930;DHT22;2990;48.746;9.236;2023-04-07T04:17:39;5.40;1.00
5930;DHT22;2990;48.746;9.236;2023-04-07T04:20:06;5.40;1.00
5930;DHT22;2990;48.746;9.236;2023-04-07T04:22:32;5.40;1.00
5930;DHT22;2990;48.746;9.236;2023-04-07T04:24:58;5.40;1.00
5930;DHT22;2990;48.746;9.236;2023-04-07T04:27:24;5.40;1.00
5930;DHT22;2990;48.746;9.236;2023-04-07T04:29:50;5.40;1.00
5930;DHT22;2990;48.746;9.236;2023-04-07T04:32:16;5.40;1.00
5930;DHT22;2990;48.746;9.236;2023-04-07T04:34:42;5.40;1.00
5930;DHT22;2990;48.746;9.236;2023-04-07T04:37:08;5.40;1.00
5930;DHT22;2990;48.746;9.236;2023-04-07T04:39:34;5.50;1.00
5930;DHT22;2990;48.746;9.236;2023-04-07T04:42:00;5.40;1.00
5930;DHT22;2990;48.746;9.236;2023-04-07T04:44:26;5.40;1.00
5930;DHT22;2990;48.746;9.236;2023-04-07T04:46:52;5.30;1.00
5930;DHT22;2990;48.746;9.236;2023-04-07T04:49:18;5.30;1.00
5930;DHT22;2990;48.746;9.236;2023-04-07T04:51:44;5.30;1.00
5930;DHT22;2990;48.746;9.236;2023-04-07T04:54:10;5.30;1.00
5930;DHT22;2990;48.746;9.236;2023-04-07T04:56:36;5.30;1.00
5930;DHT22;2990;48.746;9.236;2023-04-07T04:59:02;5.30;1.00
5930;DHT22;2990;48.746;9.236;2023-04-07T05:01:28;5.30;1.00
5930;DHT22;2990;48.746;9.236;2023-04-07T05:03:54;5.30;1.00
5930;DHT22;2990;48.746;9.236;2023-04-07T05:06:19;5.20;1.00
5930;DHT22;2990;48.746;9.236;2023-04-07T05:08:45;5.20;1.00
5930;DHT22;2990;48.746;9.236;2023-04-07T05:11:11;5.20;1.00
5930;DHT22;2990;48.746;9.236;2023-04-07T05:13:37;5.20;1.00
5930;DHT22;2990;48.746;9.236;2023-04-07T05:16:03;5.30;1.00
5930;DHT22;2990;48.746;9.236;2023-04-07T05:18:29;5.30;1.00
5930;DHT22;2990;48.746;9.236;2023-04-07T05:20:55;5.30;1.00
5930;DHT22;2990;48.746;9.236;2023-04-07T05:23:20;5.30;1.00
5930;DHT22;2990;48.746;9.236;2023-04-07T05:25:46;5.30;1.00
5930;DHT22;2990;48.746;9.236;2023-04-07T05:28:12;5.30;1.00
5930;DHT22;2990;48.746;9.236;2023-04-07T05:30:37;5.30;1.00
5930;DHT22;2990;48.746;9.236;2023-04-07T05:33:03;5.50;1.00
5930;DHT22;2990;48.746;9.236;2023-04-07T05:35:29;5.40;1.00
5930;DHT22;2990;48.746;9.236;2023-04-07T05:37:54;5.50;1.00
5930;DHT22;2990;48.746;9.236;2023-04-07T05:40:20;5.50;1.00
5930;DHT22;2990;48.746;9.236;2023-04-07T05:42:46;5.50;1.00
5930;DHT22;2990;48.746;9.236;2023-04-07T05:45:11;5.50;1.00
5930;DHT22;2990;48.746;9.236;2023-04-07T05:47:37;5.50;1.00
5930;DHT22;2990;48.746;9.236;2023-04-07T05:50:03;5.60;1.00
5930;DHT22;2990;48.746;9.236;2023-04-07T05:52:32;5.60;1.00
5930;DHT22;2990;48.746;9.236;2023-04-07T05:54:57;5.80;1.00
5930;DHT22;2990;48.746;9.236;2023-04-07T05:57:23;5.60;1.00
5930;DHT22;2990;48.746;9.236;2023-04-07T05:59:49;5.80;1.00
5930;DHT22;2990;48.746;9.236;2023-04-07T06:02:15;5.80;1.00
5930;DHT22;2990;48.746;9.236;2023-04-07T06:04:40;5.70;1.00
5930;DHT22;2990;48.746;9.236;2023-04-07T06:07:06;5.70;1.00
5930;DHT22;2990;48.746;9.236;2023-04-07T06:09:35;5.70;1.00
5930;DHT22;2990;48.746;9.236;2023-04-07T06:12:01;5.70;99.90
5930;DHT22;2990;48.746;9.236;2023-04-07T06:14:30;5.80;99.90
5930;DHT22;2990;48.746;9.236;2023-04-07T06:16:58;5.90;99.90
5930;DHT22;2990;48.746;9.236;2023-04-07T06:19:24;5.90;99.90
5930;DHT22;2990;48.746;9.236;2023-04-07T06:21:52;6.00;1.00
5930;DHT22;2990;48.746;9.236;2023-04-07T06:24:20;6.10;99.90
5930;DHT22;2990;48.746;9.236;2023-04-07T06:26:50;6.00;99.90
5930;DHT22;2990;48.746;9.236;2023-04-07T06:29:16;6.10;99.90
5930;DHT22;2990;48.746;9.236;2023-04-07T06:31:42;6.10;99.90
5930;DHT22;2990;48.746;9.236;2023-04-07T06:34:07;6.20;99.90
5930;DHT22;2990;48.746;9.236;2023-04-07T06:36:33;6.20;1.00
5930;DHT22;2990;48.746;9.236;2023-04-07T06:38:59;6.20;1.00
5930;DHT22;2990;48.746;9.236;2023-04-07T06:41:51;6.30;1.00
5930;DHT22;2990;48.746;9.236;2023-04-07T06:44:16;6.30;1.00
5930;DHT22;2990;48.746;9.236;2023-04-07T06:46:42;6.30;1.00
5930;DHT22;2990;48.746;9.236;2023-04-07T06:49:11;6.40;99.90
5930;DHT22;2990;48.746;9.236;2023-04-07T06:51:36;6.50;1.00
5930;DHT22;2990;48.746;9.236;2023-04-07T06:54:05;6.50;1.00
5930;DHT22;2990;48.746;9.236;2023-04-07T06:56:38;6.60;1.00
5930;DHT22;2990;48.746;9.236;2023-04-07T06:59:04;6.60;99.90
5930;DHT22;2990;48.746;9.236;2023-04-07T07:01:35;6.70;99.90
5930;DHT22;2990;48.746;9.236;2023-04-07T07:04:02;6.70;1.00
5930;DHT22;2990;48.746;9.236;2023-04-07T07:06:30;6.80;1.00
5930;DHT22;2990;48.746;9.236;2023-04-07T07:08:57;6.90;99.90
5930;DHT22;2990;48.746;9.236;2023-04-07T07:11:23;7.00;99.90
5930;DHT22;2990;48.746;9.236;2023-04-07T07:13:50;7.00;1.00
5930;DHT22;2990;48.746;9.236;2023-04-07T07:16:18;7.10;99.90
5930;DHT22;2990;48.746;9.236;2023-04-07T07:19:02;7.20;99.90
5930;DHT22;2990;48.746;9.236;2023-04-07T07:21:30;7.30;1.00
5930;DHT22;2990;48.746;9.236;2023-04-07T07:23:58;7.40;1.00
5930;DHT22;2990;48.746;9.236;2023-04-07T07:26:23;7.50;99.90
5930;DHT22;2990;48.746;9.236;2023-04-07T07:28:52;7.60;1.00
5930;DHT22;2990;48.746;9.236;2023-04-07T07:31:20;7.70;1.00
5930;DHT22;2990;48.746;9.236;2023-04-07T07:33:46;7.80;99.90
5930;DHT22;2990;48.746;9.236;2023-04-07T07:36:14;7.80;1.00
5930;DHT22;2990;48.746;9.236;2023-04-07T07:38:39;7.90;51.30
5930;DHT22;2990;48.746;9.236;2023-04-07T07:41:06;7.90;1.00
5930;DHT22;2990;48.746;9.236;2023-04-07T07:43:32;8.10;1.00
5930;DHT22;2990;48.746;9.236;2023-04-07T07:45:57;8.10;99.90
5930;DHT22;2990;48.746;9.236;2023-04-07T07:48:23;8.10;1.00
5930;DHT22;2990;48.746;9.236;2023-04-07T07:51:14;8.30;1.00
5930;DHT22;2990;48.746;9.236;2023-04-07T07:53:51;8.30;1.00
5930;DHT22;2990;48.746;9.236;2023-04-07T07:56:17;8.30;1.00
5930;DHT22;2990;48.746;9.236;2023-04-07T07:58:47;8.30;1.00
5930;DHT22;2990;48.746;9.236;2023-04-07T08:01:15;8.40;1.00
5930;DHT22;2990;48.746;9.236;2023-04-07T08:03:41;8.50;99.90
5930;DHT22;2990;48.746;9.236;2023-04-07T08:06:08;8.50;4.10
5930;DHT22;2990;48.746;9.236;2023-04-07T08:08:35;8.50;1.00
5930;DHT22;2990;48.746;9.236;2023-04-07T08:11:01;8.70;1.00
5930;DHT22;2990;48.746;9.236;2023-04-07T08:13:29;8.60;1.00
5930;DHT22;2990;48.746;9.236;2023-04-07T08:15:58;8.90;1.00
5930;DHT22;2990;48.746;9.236;2023-04-07T08:18:24;9.00;99.90
5930;DHT22;2990;48.746;9.236;2023-04-07T08:20:52;9.10;99.90
5930;DHT22;2990;48.746;9.236;2023-04-07T08:23:18;9.00;99.90
5930;DHT22;2990;48.746;9.236;2023-04-07T08:25:44;9.00;99.90
5930;DHT22;2990;48.746;9.236;2023-04-07T08:28:12;9.00;99.90
5930;DHT22;2990;48.746;9.236;2023-04-07T08:30:38;9.20;99.90
5930;DHT22;2990;48.746;9.236;2023-04-07T08:33:08;9.40;99.90
5930;DHT22;2990;48.746;9.236;2023-04-07T08:35:37;9.70;99.90
5930;DHT22;2990;48.746;9.236;2023-04-07T08:38:06;10.20;99.90
5930;DHT22;2990;48.746;9.236;2023-04-07T08:40:35;10.80;26.00
5930;DHT22;2990;48.746;9.236;2023-04-07T08:45:30;11.40;1.00
5930;DHT22;2990;48.746;9.236;2023-04-07T08:47:58;12.40;1.00
5930;DHT22;2990;48.746;9.236;2023-04-07T08:50:32;12.80;99.90
5930;DHT22;2990;48.746;9.236;2023-04-07T08:52:59;13.00;99.90
5930;DHT22;2990;48.746;9.236;2023-04-07T08:55:30;13.00;99.90
5930;DHT22;2990;48.746;9.236;2023-04-07T08:57:56;12.80;99.90
5930;DHT22;2990;48.746;9.236;2023-04-07T09:00:22;12.60;99.90
5930;DHT22;2990;48.746;9.236;2023-04-07T09:02:49;12.60;99.90
5930;DHT22;2990;48.746;9.236;2023-04-07T09:05:16;12.30;99.90
5930;DHT22;2990;48.746;9.236;2023-04-07T09:07:42;12.10;99.90
5930;DHT22;2990;48.746;9.236;2023-04-07T09:10:08;12.20;99.90
5930;DHT22;2990;48.746;9.236;2023-04-07T09:12:34;12.00;99.90
5930;DHT22;2990;48.746;9.236;2023-04-07T09:15:00;11.70;99.90
5930;DHT22;2990;48.746;9.236;2023-04-07T09:17:29;11.20;99.90
5930;DHT22;2990;48.746;9.236;2023-04-07T09:19:59;11.50;99.90
5930;DHT22;2990;48.746;9.236;2023-04-07T09:22:42;11.80;99.90
5930;DHT22;2990;48.746;9.236;2023-04-07T09:25:20;12.00;99.90
5930;DHT22;2990;48.746;9.236;2023-04-07T09:30:19;12.30;99.90
5930;DHT22;2990;48.746;9.236;2023-04-07T09:32:47;12.40;99.90
5930;DHT22;2990;48.746;9.236;2023-04-07T09:35:13;12.80;99.90
5930;DHT22;2990;48.746;9.236;2023-04-07T09:37:39;12.90;99.90
5930;DHT22;2990;48.746;9.236;2023-04-07T09:40:34;12.80;99.90
5930;DHT22;2990;48.746;9.236;2023-04-07T09:43:02;13.10;99.90
5930;DHT22;2990;48.746;9.236;2023-04-07T09:45:32;13.10;99.90
5930;DHT22;2990;48.746;9.236;2023-04-07T09:47:59;13.30;99.90
5930;DHT22;2990;48.746;9.236;2023-04-07T09:50:40;13.50;99.90
5930;DHT22;2990;48.746;9.236;2023-04-07T09:53:14;13.10;99.90
5930;DHT22;2990;48.746;9.236;2023-04-07T09:55:40;13.00;99.90
5930;DHT22;2990;48.746;9.236;2023-04-07T09:58:09;12.60;99.90
5930;DHT22;2990;48.746;9.236;2023-04-07T10:00:41;12.30;99.90
5930;DHT22;2990;48.746;9.236;2023-04-07T10:03:07;12.10;99.90
5930;DHT22;2990;48.746;9.236;2023-04-07T10:05:33;12.10;99.90
5930;DHT22;2990;48.746;9.236;2023-04-07T10:08:01;11.90;99.90
5930;DHT22;2990;48.746;9.236;2023-04-07T10:10:27;11.90;99.90
5930;DHT22;2990;48.746;9.236;2023-04-07T10:12:57;12.10;99.90
5930;DHT22;2990;48.746;9.236;2023-04-07T10:15:23;12.20;99.90
5930;DHT22;2990;48.746;9.236;2023-04-07T10:17:50;12.50;99.90
5930;DHT22;2990;48.746;9.236;2023-04-07T10:20:19;12.80;99.90
5930;DHT22;2990;48.746;9.236;2023-04-07T10:22:49;12.80;99.90
5930;DHT22;2990;48.746;9.236;2023-04-07T10:25:20;12.70;99.90
5930;DHT22;2990;48.746;9.236;2023-04-07T10:27:48;12.50;99.90
5930;DHT22;2990;48.746;9.236;2023-04-07T10:30:25;12.30;99.90
5930;DHT22;2990;48.746;9.236;2023-04-07T10:32:54;12.40;99.90
5930;DHT22;2990;48.746;9.236;2023-04-07T10:35:21;11.90;99.90
5930;DHT22;2990;48.746;9.236;2023-04-07T10:40:32;11.60;99.90
5930;DHT22;2990;48.746;9.236;2023-04-07T10:42:58;11.70;99.90
5930;DHT22;2990;48.746;9.236;2023-04-07T10:48:17;11.90;99.90
5930;DHT22;2990;48.746;9.236;2023-04-07T10:50:44;12.00;99.90
5930;DHT22;2990;48.746;9.236;2023-04-07T10:53:14;12.20;99.90
5930;DHT22;2990;48.746;9.236;2023-04-07T10:55:44;12.30;99.90
5930;DHT22;2990;48.746;9.236;2023-04-07T10:58:32;12.20;99.90
5930;DHT22;2990;48.746;9.236;2023-04-07T11:03:40;11.90;99.90
5930;DHT22;2990;48.746;9.236;2023-04-07T11:06:13;12.00;99.90
5930;DHT22;2990;48.746;9.236;2023-04-07T11:08:44;12.00;99.90
5930;DHT22;2990;48.746;9.236;2023-04-07T11:11:14;12.00;99.90
5930;DHT22;2990;48.746;9.236;2023-04-07T11:13:44;12.00;99.90
5930;DHT22;2990;48.746;9.236;2023-04-07T11:16:34;12.00;99.90
5930;DHT22;2990;48.746;9.236;2023-04-07T11:18:59;12.00;99.90
5930;DHT22;2990;48.746;9.236;2023-04-07T11:21:25;12.00;99.90
5930;DHT22;2990;48.746;9.236;2023-04-07T11:23:59;12.00;99.90
5930;DHT22;2990;48.746;9.236;2023-04-07T11:26:26;12.20;99.90
5930;DHT22;2990;48.746;9.236;2023-04-07T11:28:54;12.40;99.90
5930;DHT22;2990;48.746;9.236;2023-04-07T11:31:40;12.50;99.90
5930;DHT22;2990;48.746;9.236;2023-04-07T11:34:13;12.60;99.90
5930;DHT22;2990;48.746;9.236;2023-04-07T11:36:40;12.40;99.90
5930;DHT22;2990;48.746;9.236;2023-04-07T11:39:18;12.30;99.90
5930;DHT22;2990;48.746;9.236;2023-04-07T11:41:48;12.20;99.90
5930;DHT22;2990;48.746;9.236;2023-04-07T11:44:16;12.10;99.90
5930;DHT22;2990;48.746;9.236;2023-04-07T11:46:56;12.00;99.90
5930;DHT22;2990;48.746;9.236;2023-04-07T11:49:23;11.90;99.90
5930;DHT22;2990;48.746;9.236;2023-04-07T11:51:57;11.80;99.90
5930;DHT22;2990;48.746;9.236;2023-04-07T11:54:23;11.60;99.90
5930;DHT22;2990;48.746;9.236;2023-04-07T11:56:48;11.70;99.90
5930;DHT22;2990;48.746;9.236;2023-04-07T11:59:20;11.70;99.90
5930;DHT22;2990;48.746;9.236;2023-04-07T12:01:47;11.70;99.90
5930;DHT22;2990;48.746;9.236;2023-04-07T12:04:14;11.70;99.90
5930;DHT22;2990;48.746;9.236;2023-04-07T12:06:40;11.70;99.90
5930;DHT22;2990;48.746;9.236;2023-04-07T12:09:30;11.70;99.90
5930;DHT22;2990;48.746;9.236;2023-04-07T12:11:57;11.60;99.90
5930;DHT22;2990;48.746;9.236;2023-04-07T12:14:24;11.40;99.90
5930;DHT22;2990;48.746;9.236;2023-04-07T12:16:50;11.30;99.90
5930;DHT22;2990;48.746;9.236;2023-04-07T12:19:17;11.10;99.90
5930;DHT22;2990;48.746;9.236;2023-04-07T12:21:43;11.00;1.00
5930;DHT22;2990;48.746;9.236;2023-04-07T12:24:12;10.70;1.00
5930;DHT22;2990;48.746;9.236;2023-04-07T12:29:04;10.50;1.00
5930;DHT22;2990;48.746;9.236;2023-04-07T12:31:33;9.90;1.00
5930;DHT22;2990;48.746;9.236;2023-04-07T12:34:01;9.50;1.00
5930;DHT22;2990;48.746;9.236;2023-04-07T12:36:27;9.30;1.00
5930;DHT22;2990;48.746;9.236;2023-04-07T12:38:54;9.20;1.00
5930;DHT22;2990;48.746;9.236;2023-04-07T12:41:20;9.10;99.90
5930;DHT22;2990;48.746;9.236;2023-04-07T12:43:45;8.90;99.90
5930;DHT22;2990;48.746;9.236;2023-04-07T12:46:11;8.80;99.90
5930;DHT22;2990;48.746;9.236;2023-04-07T12:48:37;8.80;1.00
5930;DHT22;2990;48.746;9.236;2023-04-07T12:51:02;8.70;1.00
5930;DHT22;2990;48.746;9.236;2023-04-07T12:53:28;8.70;1.00
5930;DHT22;2990;48.746;9.236;2023-04-07T12:55:54;8.70;1.00
5930;DHT22;2990;48.746;9.236;2023-04-07T12:58:20;8.80;1.00
5930;DHT22;2990;48.746;9.236;2023-04-07T13:00:46;8.80;1.00
5930;DHT22;2990;48.746;9.236;2023-04-07T13:03:12;8.70;1.00
5930;DHT22;2990;48.746;9.236;2023-04-07T13:05:38;8.80;99.90
5930;DHT22;2990;48.746;9.236;2023-04-07T13:08:04;8.80;99.90
5930;DHT22;2990;48.746;9.236;2023-04-07T13:10:29;8.90;99.90
5930;DHT22;2990;48.746;9.236;2023-04-07T13:12:55;9.00;99.90
5930;DHT22;2990;48.746;9.236;2023-04-07T13:15:21;9.10;99.90
5930;DHT22;2990;48.746;9.236;2023-04-07T13:17:46;9.20;1.00
5930;DHT22;2990;48.746;9.236;2023-04-07T13:20:12;9.40;99.90
5930;DHT22;2990;48.746;9.236;2023-04-07T13:22:38;9.50;1.00
5930;DHT22;2990;48.746;9.236;2023-04-07T13:25:04;9.60;99.90
5930;DHT22;2990;48.746;9.236;2023-04-07T13:27:30;9.60;1.00
5930;DHT22;2990;48.746;9.236;2023-04-07T13:29:55;9.70;1.00
5930;DHT22;2990;48.746;9.236;2023-04-07T13:32:21;9.70;1.00
5930;DHT22;2990;48.746;9.236;2023-04-07T13:34:49;9.90;99.90
5930;DHT22;2990;48.746;9.236;2023-04-07T13:39:51;9.90;99.90
5930;DHT22;2990;48.746;9.236;2023-04-07T13:42:17;10.10;1.00
5930;DHT22;2990;48.746;9.236;2023-04-07T13:44:45;10.00;99.90
5930;DHT22;2990;48.746;9.236;2023-04-07T13:47:20;10.00;96.40
5930;DHT22;2990;48.746;9.236;2023-04-07T13:50:02;10.10;99.90
5930;DHT22;2990;48.746;9.236;2023-04-07T13:52:31;10.10;1.00
5930;DHT22;2990;48.746;9.236;2023-04-07T13:55:01;10.10;93.60
5930;DHT22;2990;48.746;9.236;2023-04-07T13:57:30;10.10;99.90
5930;DHT22;2990;48.746;9.236;2023-04-07T14:00:01;10.10;1.00
5930;DHT22;2990;48.746;9.236;2023-04-07T14:02:29;10.10;1.00
5930;DHT22;2990;48.746;9.236;2023-04-07T14:04:56;10.20;1.00
5930;DHT22;2990;48.746;9.236;2023-04-07T14:07:31;10.20;99.90
5930;DHT22;2990;48.746;9.236;2023-04-07T14:09:57;10.20;99.90
5930;DHT22;2990;48.746;9.236;2023-04-07T14:12:25;10.30;99.90
5930;DHT22;2990;48.746;9.236;2023-04-07T14:14:54;10.30;1.00
5930;DHT22;2990;48.746;9.236;2023-04-07T14:17:21;10.40;1.00
5930;DHT22;2990;48.746;9.236;2023-04-07T14:19:46;10.40;1.00
5930;DHT22;2990;48.746;9.236;2023-04-07T14:22:13;10.40;99.90
5930;DHT22;2990;48.746;9.236;2023-04-07T14:24:39;10.70;1.00
5930;DHT22;2990;48.746;9.236;2023-04-07T14:27:04;10.70;1.00
5930;DHT22;2990;48.746;9.236;2023-04-07T14:29:48;10.80;1.00
5930;DHT22;2990;48.746;9.236;2023-04-07T14:32:25;11.00;99.90
5930;DHT22;2990;48.746;9.236;2023-04-07T14:34:54;11.10;1.00
5930;DHT22;2990;48.746;9.236;2023-04-07T14:37:19;11.10;1.00
5930;DHT22;2990;48.746;9.236;2023-04-07T14:40:08;11.20;99.90
5930;DHT22;2990;48.746;9.236;2023-04-07T14:42:38;11.30;99.90
5930;DHT22;2990;48.746;9.236;2023-04-07T14:45:07;11.50;99.90
5930;DHT22;2990;48.746;9.236;2023-04-07T14:47:33;11.50;99.90
5930;DHT22;2990;48.746;9.236;2023-04-07T14:49:59;11.60;1.00
5930;DHT22;2990;48.746;9.236;2023-04-07T14:52:24;11.60;1.00
5930;DHT22;2990;48.746;9.236;2023-04-07T14:54:50;11.60;1.00
5930;DHT22;2990;48.746;9.236;2023-04-07T14:57:15;11.60;1.00
5930;DHT22;2990;48.746;9.236;2023-04-07T14:59:44;11.60;1.00
5930;DHT22;2990;48.746;9.236;2023-04-07T15:02:09;11.60;1.00
5930;DHT22;2990;48.746;9.236;2023-04-07T15:04:35;11.50;1.00
5930;DHT22;2990;48.746;9.236;2023-04-07T15:07:04;11.50;1.00
5930;DHT22;2990;48.746;9.236;2023-04-07T15:09:30;11.50;1.00
5930;DHT22;2990;48.746;9.236;2023-04-07T15:11:56;11.40;1.00
5930;DHT22;2990;48.746;9.236;2023-04-07T15:14:29;11.30;1.00
5930;DHT22;2990;48.746;9.236;2023-04-07T15:16:55;11.30;1.00
5930;DHT22;2990;48.746;9.236;2023-04-07T15:19:20;11.30;1.00
5930;DHT22;2990;48.746;9.236;2023-04-07T15:21:46;11.30;1.00
5930;DHT22;2990;48.746;9.236;2023-04-07T15:24:12;11.20;1.00
5930;DHT22;2990;48.746;9.236;2023-04-07T15:26:37;11.10;1.00
5930;DHT22;2990;48.746;9.236;2023-04-07T15:29:05;11.10;1.00
5930;DHT22;2990;48.746;9.236;2023-04-07T15:31:33;11.10;1.00
5930;DHT22;2990;48.746;9.236;2023-04-07T15:33:59;11.00;1.00
5930;DHT22;2990;48.746;9.236;2023-04-07T15:36:25;11.00;1.00
5930;DHT22;2990;48.746;9.236;2023-04-07T15:38:51;11.00;1.00
5930;DHT22;2990;48.746;9.236;2023-04-07T15:41:17;11.00;1.00
5930;DHT22;2990;48.746;9.236;2023-04-07T15:43:43;11.00;1.00
5930;DHT22;2990;48.746;9.236;2023-04-07T15:46:08;11.00;1.00
5930;DHT22;2990;48.746;9.236;2023-04-07T15:48:37;11.00;1.00
5930;DHT22;2990;48.746;9.236;2023-04-07T15:51:03;10.90;1.00
5930;DHT22;2990;48.746;9.236;2023-04-07T16:07:21;11.00;1.00
5930;DHT22;2990;48.746;9.236;2023-04-07T16:09:47;11.10;1.00
5930;DHT22;2990;48.746;9.236;2023-04-07T16:12:21;11.10;1.00
5930;DHT22;2990;48.746;9.236;2023-04-07T16:18:30;11.20;1.00
5930;DHT22;2990;48.746;9.236;2023-04-07T16:21:09;11.40;1.00
5930;DHT22;2990;48.746;9.236;2023-04-07T16:23:54;11.50;1.00
5930;DHT22;2990;48.746;9.236;2023-04-07T16:26:26;11.30;1.00
5930;DHT22;2990;48.746;9.236;2023-04-07T16:28:56;11.30;1.00
5930;DHT22;2990;48.746;9.236;2023-04-07T16:31:22;11.30;1.00
5930;DHT22;2990;48.746;9.236;2023-04-07T16:40:55;11.00;1.00
5930;DHT22;2990;48.746;9.236;2023-04-07T16:43:21;10.90;1.00
5930;DHT22;2990;48.746;9.236;2023-04-07T16:45:50;10.70;1.00
5930;DHT22;2990;48.746;9.236;2023-04-07T16:48:16;10.60;1.00
5930;DHT22;2990;48.746;9.236;2023-04-07T16:50:43;10.60;1.00
5930;DHT22;2990;48.746;9.236;2023-04-07T16:53:11;10.50;1.00
5930;DHT22;2990;48.746;9.236;2023-04-07T16:55:51;10.40;1.00
5930;DHT22;2990;48.746;9.236;2023-04-07T16:58:17;10.40;1.00
5930;DHT22;2990;48.746;9.236;2023-04-07T17:01:04;10.30;1.00
5930;DHT22;2990;48.746;9.236;2023-04-07T17:03:32;10.30;1.00
5930;DHT22;2990;48.746;9.236;2023-04-07T17:06:01;10.20;15.20
5930;DHT22;2990;48.746;9.236;2023-04-07T17:08:55;10.10;1.00
5930;DHT22;2990;48.746;9.236;2023-04-07T17:11:24;10.10;1.00
5930;DHT22;2990;48.746;9.236;2023-04-07T17:14:19;10.00;1.00
5930;DHT22;2990;48.746;9.236;2023-04-07T17:16:44;9.90;29.80
5930;DHT22;2990;48.746;9.236;2023-04-07T17:19:10;9.90;91.50